Time;durP1;ratioP1;P1;durP2;ratioP2;P2;SDS_P1;SDS_P2;PMS_P1;PMS_P2;Temp;Humidity;BMP_temperature;BMP_pressure;BME280_temperature;BME280_humidity;BME280_pressure;Samples;Min_cycle;Max_cycle;Signal;HPM_P1;HPM_P2
2021/08/24 00:00:43;;;;;;;3.17;1.50;;;14.80;99.90;;;;;;5012033;28;20219;-70
2021/08/24 00:03:09;;;;;;;4.73;1.40;;;14.70;99.90;;;;;;5011914;28;20188;-70
2021/08/24 00:05:36;;;;;;;3.93;1.70;;;14.60;99.90;;;;;;5011933;28;20275;-70
2021/08/24 00:08:05;;;;;;;3.20;1.70;;;14.60;99.90;;;;;;5012073;28;20504;-70
2021/08/24 00:10:34;;;;;;;2.80;1.77;;;14.50;99.90;;;;;;5012062;28;20786;-70
2021/08/24 00:13:00;;;;;;;1.60;1.50;;;14.40;99.90;;;;;;5011718;28;20470;-70
2021/08/24 00:15:26;;;;;;;2.03;1.53;;;14.40;99.90;;;;;;5011995;28;20761;-71
2021/08/24 00:21:14;;;;;;;3.23;1.57;;;14.20;99.90;;;;;;5011819;28;20387;-70
2021/08/24 00:23:39;;;;;;;1.73;1.50;;;14.20;99.90;;;;;;5011539;28;20934;-69
2021/08/24 00:26:05;;;;;;;1.80;1.50;;;14.10;99.90;;;;;;5011826;28;20172;-70
2021/08/24 00:28:30;;;;;;;2.20;1.43;;;14.10;99.90;;;;;;5011810;28;20179;-70
2021/08/24 00:30:56;;;;;;;2.60;1.83;;;14.00;99.90;;;;;;5011613;28;20258;-70
2021/08/24 00:33:24;;;;;;;2.97;1.47;;;13.90;99.90;;;;;;5011683;28;20201;-70
2021/08/24 00:35:50;;;;;;;2.53;1.63;;;13.90;99.90;;;;;;4996469;28;20428;-70
2021/08/24 00:38:20;;;;;;;2.77;1.53;;;13.90;99.90;;;;;;4991875;28;20725;-70
2021/08/24 00:40:58;;;;;;;3.83;2.00;;;13.80;99.90;;;;;;4991997;28;20809;-70
2021/08/24 00:43:26;;;;;;;3.13;1.57;;;13.80;99.90;;;;;;4991966;28;20973;-70
2021/08/24 00:45:56;;;;;;;5.13;1.60;;;13.70;99.90;;;;;;4992037;28;20918;-70
2021/08/24 00:48:31;;;;;;;4.80;2.37;;;13.70;99.90;;;;;;4991752;28;20416;-70
2021/08/24 00:50:56;;;;;;;2.63;1.90;;;13.60;99.90;;;;;;4991884;28;20488;-70
2021/08/24 00:53:25;;;;;;;2.13;1.70;;;13.60;99.90;;;;;;4992086;28;20435;-70
2021/08/24 00:55:51;;;;;;;2.30;1.57;;;13.50;99.90;;;;;;4991751;28;20184;-70
2021/08/24 00:58:18;;;;;;;3.57;2.17;;;13.50;99.90;;;;;;4991751;28;20423;-70
2021/08/24 01:00:45;;;;;;;2.57;1.77;;;13.50;99.90;;;;;;4991716;28;20484;-70
2021/08/24 01:03:14;;;;;;;1.53;1.40;;;13.40;99.90;;;;;;4991490;28;20847;-69
2021/08/24 01:05:42;;;;;;;4.00;1.50;;;13.40;99.90;;;;;;4991592;28;20478;-68
2021/08/24 01:08:43;;;;;;;2.80;1.67;;;13.30;99.90;;;;;;4991769;28;20415;-68
2021/08/24 01:11:21;;;;;;;5.53;2.50;;;13.30;99.90;;;;;;4962444;28;20514;-68
2021/08/24 01:14:08;;;;;;;2.30;1.80;;;13.30;99.90;;;;;;4995634;28;20498;-70
2021/08/24 01:16:40;;;;;;;7.40;2.27;;;13.20;99.90;;;;;;4995637;28;20455;-69
2021/08/24 01:19:40;;;;;;;5.13;2.40;;;13.20;99.90;;;;;;4995756;28;20822;-69
2021/08/24 01:22:36;;;;;;;2.40;1.90;;;13.10;99.90;;;;;;4996015;28;20931;-70
2021/08/24 01:25:10;;;;;;;3.40;1.67;;;13.00;99.90;;;;;;4996045;28;21059;-70
2021/08/24 01:27:48;;;;;;;3.50;2.60;;;13.00;99.90;;;;;;4993781;28;20427;-70
2021/08/24 01:30:51;;;;;;;4.40;1.90;;;13.00;99.90;;;;;;4995332;28;20888;-69
2021/08/24 01:33:31;;;;;;;3.30;1.83;;;12.90;99.90;;;;;;4995137;28;20434;-70
2021/08/24 01:36:24;;;;;;;4.30;2.70;;;12.90;99.90;;;;;;4994395;28;20446;-69
2021/08/24 01:39:03;;;;;;;3.70;1.83;;;12.80;99.90;;;;;;4995227;28;20444;-69
2021/08/24 01:41:37;;;;;;;3.30;2.30;;;12.80;99.90;;;;;;4995200;28;20412;-69
2021/08/24 01:44:20;;;;;;;4.07;1.87;;;12.70;99.90;;;;;;4995162;28;20617;-70
2021/08/24 01:47:15;;;;;;;2.90;1.87;;;12.70;99.90;;;;;;4994983;28;20412;-70
2021/08/24 01:49:51;;;;;;;2.23;1.63;;;12.70;99.90;;;;;;4993546;28;20539;-69
2021/08/24 01:52:22;;;;;;;2.33;1.60;;;12.70;99.90;;;;;;4994664;28;20442;-69
2021/08/24 01:54:52;;;;;;;2.23;2.03;;;12.70;99.90;;;;;;4994716;28;20827;-69
2021/08/24 01:57:23;;;;;;;3.67;2.80;;;12.60;99.90;;;;;;4994790;28;20891;-69
2021/08/24 01:59:55;;;;;;;3.30;2.50;;;12.60;99.90;;;;;;4994625;28;20439;-69
2021/08/24 02:02:26;;;;;;;2.10;1.90;;;12.60;99.90;;;;;;4994460;28;20447;-71
2021/08/24 02:05:05;;;;;;;2.00;1.83;;;12.60;99.90;;;;;;4994595;28;20408;-70
2021/08/24 02:07:33;;;;;;;5.20;2.27;;;12.60;99.90;;;;;;4994327;28;20478;-69
2021/08/24 02:10:04;;;;;;;2.00;1.73;;;12.50;99.90;;;;;;4994606;28;20787;-69
2021/08/24 02:12:34;;;;;;;5.27;2.37;;;12.50;99.90;;;;;;4994434;28;20817;-69
2021/08/24 02:15:01;;;;;;;7.13;2.30;;;12.60;99.90;;;;;;4994380;28;20443;-68
2021/08/24 02:17:29;;;;;;;2.70;1.70;;;12.50;99.90;;;;;;4994103;28;20791;-68
2021/08/24 02:20:02;;;;;;;4.73;2.53;;;12.50;99.90;;;;;;4993904;28;20412;-70
2021/08/24 02:22:36;;;;;;;3.30;1.70;;;12.50;99.90;;;;;;4993487;28;20432;-69
2021/08/24 02:25:11;;;;;;;5.90;1.90;;;12.50;99.90;;;;;;4994317;28;20409;-69
2021/08/24 02:27:42;;;;;;;2.97;1.83;;;12.50;99.90;;;;;;4994081;28;20434;-70
2021/08/24 02:30:09;;;;;;;2.40;2.20;;;12.40;99.90;;;;;;4994014;28;20962;-70
2021/08/24 02:32:39;;;;;;;3.13;2.00;;;12.50;99.90;;;;;;4993909;28;20493;-70
2021/08/24 02:35:29;;;;;;;6.20;2.70;;;12.50;99.90;;;;;;4994150;28;20415;-70
2021/08/24 02:38:17;;;;;;;4.37;2.20;;;12.40;99.90;;;;;;4993900;28;20458;-70
2021/08/24 02:40:53;;;;;;;3.57;2.50;;;12.40;99.90;;;;;;4994462;28;20403;-71
2021/08/24 02:43:28;;;;;;;2.50;2.03;;;12.40;99.90;;;;;;4976757;28;20627;-71
2021/08/24 02:46:17;;;;;;;2.30;2.10;;;12.40;99.90;;;;;;4994068;28;20396;-70
2021/08/24 02:48:47;;;;;;;2.23;2.00;;;12.40;99.90;;;;;;4993672;28;20765;-70
2021/08/24 02:51:15;;;;;;;3.00;1.90;;;12.40;99.90;;;;;;4993913;28;20883;-69
2021/08/24 02:53:44;;;;;;;2.00;1.80;;;12.30;99.90;;;;;;4993851;28;20797;-70
2021/08/24 02:56:10;;;;;;;4.60;2.60;;;12.30;99.90;;;;;;4993458;28;20459;-69
2021/08/24 02:58:35;;;;;;;2.20;2.00;;;12.30;99.90;;;;;;4993434;28;20409;-69
2021/08/24 03:01:01;;;;;;;4.63;2.33;;;12.30;99.90;;;;;;4993486;28;20169;-69
2021/08/24 03:03:26;;;;;;;2.63;2.40;;;12.30;99.90;;;;;;4993309;28;20188;-69
2021/08/24 03:05:52;;;;;;;5.23;2.50;;;12.30;99.90;;;;;;4993400;28;20242;-69
2021/08/24 03:08:18;;;;;;;5.40;2.07;;;12.20;99.90;;;;;;4993322;28;20176;-69
2021/08/24 03:10:46;;;;;;;4.37;2.20;;;12.20;99.90;;;;;;4993440;28;20519;-70
2021/08/24 03:13:30;;;;;;;3.00;2.03;;;12.20;99.90;;;;;;4992934;28;20451;-69
2021/08/24 03:16:03;;;;;;;3.57;2.63;;;12.10;99.90;;;;;;4993074;28;20426;-69
2021/08/24 03:18:39;;;;;;;4.00;2.20;;;12.10;99.90;;;;;;4993224;28;20462;-70
2021/08/24 03:21:10;;;;;;;2.80;1.90;;;12.10;99.90;;;;;;4993215;28;20656;-70
2021/08/24 03:23:38;;;;;;;3.10;2.50;;;12.10;99.90;;;;;;4993102;28;20924;-69
2021/08/24 03:26:05;;;;;;;4.30;2.40;;;12.10;99.90;;;;;;4993197;28;20400;-69
2021/08/24 03:28:31;;;;;;;3.13;2.30;;;12.10;99.90;;;;;;4992902;28;20409;-70
2021/08/24 03:30:56;;;;;;;3.50;2.20;;;12.10;99.90;;;;;;4992920;28;20466;-70
2021/08/24 03:33:22;;;;;;;3.37;2.00;;;12.10;99.90;;;;;;4992652;28;20189;-70
2021/08/24 03:35:47;;;;;;;4.03;3.00;;;12.10;99.90;;;;;;4992967;28;20201;-70
2021/08/24 03:38:13;;;;;;;3.80;2.70;;;12.10;99.90;;;;;;4992781;28;20215;-70
2021/08/24 03:40:39;;;;;;;4.30;2.27;;;12.00;99.90;;;;;;4992828;28;20203;-70
2021/08/24 03:43:05;;;;;;;7.37;2.10;;;12.00;99.90;;;;;;4992809;28;20649;-70
2021/08/24 03:45:30;;;;;;;3.70;1.90;;;12.00;99.90;;;;;;4992847;28;20257;-69
2021/08/24 03:47:56;;;;;;;3.20;2.20;;;12.00;99.90;;;;;;4992847;28;20581;-70
2021/08/24 03:50:22;;;;;;;3.00;2.17;;;12.00;99.90;;;;;;4992765;28;20309;-69
2021/08/24 03:52:48;;;;;;;3.80;2.60;;;12.00;99.90;;;;;;4992610;28;20230;-69
2021/08/24 03:55:13;;;;;;;2.60;2.23;;;12.00;99.90;;;;;;4992748;28;20491;-68
2021/08/24 03:57:39;;;;;;;4.70;2.70;;;12.00;99.90;;;;;;4992399;28;20201;-68
2021/08/24 04:00:06;;;;;;;4.50;2.23;;;12.00;99.90;;;;;;4992602;28;20169;-68
2021/08/24 04:02:32;;;;;;;3.43;2.40;;;12.00;99.90;;;;;;4991056;28;20215;-70
2021/08/24 04:05:01;;;;;;;3.10;2.60;;;12.00;99.90;;;;;;4992408;28;21026;-69
2021/08/24 04:07:27;;;;;;;2.83;2.47;;;12.00;99.90;;;;;;4992197;28;20181;-69
2021/08/24 04:09:52;;;;;;;5.40;2.67;;;12.00;99.90;;;;;;4992346;28;20432;-69
2021/08/24 04:12:18;;;;;;;5.30;2.73;;;12.00;99.90;;;;;;4992055;28;20680;-69
2021/08/24 04:14:43;;;;;;;3.20;2.40;;;12.00;99.90;;;;;;4992606;28;20252;-69
2021/08/24 04:17:09;;;;;;;3.73;2.50;;;12.00;99.90;;;;;;4992023;28;20204;-70
2021/08/24 04:19:34;;;;;;;8.23;3.00;;;12.00;99.90;;;;;;4992517;28;20184;-70
2021/08/24 04:22:00;;;;;;;4.20;2.77;;;12.00;99.90;;;;;;4992604;28;20719;-70
2021/08/24 04:24:25;;;;;;;8.40;3.23;;;12.00;99.90;;;;;;4993003;28;20165;-70
2021/08/24 04:26:51;;;;;;;5.60;2.70;;;12.00;99.90;;;;;;4992147;28;20254;-69
2021/08/24 04:29:16;;;;;;;4.60;3.07;;;12.00;99.90;;;;;;4992491;28;20209;-69
2021/08/24 04:31:42;;;;;;;4.37;2.87;;;12.00;99.90;;;;;;4992125;28;20197;-69
2021/08/24 04:34:08;;;;;;;2.97;2.33;;;12.00;99.90;;;;;;4992044;28;20184;-69
2021/08/24 04:36:33;;;;;;;5.23;3.17;;;12.00;99.90;;;;;;4992230;28;20200;-70
2021/08/24 04:38:59;;;;;;;4.80;2.40;;;12.10;99.90;;;;;;4992030;28;20296;-69
2021/08/24 04:41:25;;;;;;;3.30;2.83;;;12.10;99.90;;;;;;4991826;28;20172;-69
2021/08/24 04:43:50;;;;;;;3.73;2.80;;;12.10;99.90;;;;;;4991388;28;20169;-69
2021/08/24 04:46:15;;;;;;;4.00;3.20;;;12.10;99.90;;;;;;4991949;28;20177;-69
2021/08/24 04:48:41;;;;;;;3.90;3.20;;;12.20;99.90;;;;;;4991885;28;20265;-69
2021/08/24 04:51:07;;;;;;;8.70;3.10;;;12.20;99.90;;;;;;4991896;28;20518;-69
2021/08/24 04:53:32;;;;;;;7.30;3.10;;;12.20;99.90;;;;;;4991775;28;20207;-70
2021/08/24 04:55:58;;;;;;;3.67;2.17;;;12.30;99.90;;;;;;4991806;28;20614;-70
2021/08/24 04:58:24;;;;;;;5.20;3.30;;;12.30;99.90;;;;;;4991811;28;20712;-70
2021/08/24 05:00:49;;;;;;;5.10;3.00;;;12.30;99.90;;;;;;4991937;28;20191;-69
2021/08/24 05:03:15;;;;;;;7.67;2.27;;;12.30;99.90;;;;;;4991587;28;20185;-69
2021/08/24 05:05:40;;;;;;;4.97;2.30;;;12.40;99.90;;;;;;4991778;28;20169;-70
2021/08/24 05:08:06;;;;;;;5.10;2.33;;;12.40;99.90;;;;;;4991592;28;20175;-69
2021/08/24 05:10:32;;;;;;;5.83;2.13;;;12.50;99.90;;;;;;4991440;28;20177;-69
2021/08/24 05:13:00;;;;;;;4.63;2.77;;;12.50;99.90;;;;;;4991351;28;20208;-69
2021/08/24 05:15:26;;;;;;;4.90;2.10;;;12.60;99.90;;;;;;4991553;28;20939;-69
2021/08/24 05:17:51;;;;;;;3.50;2.27;;;12.60;99.90;;;;;;4991376;28;20452;-70
2021/08/24 05:20:17;;;;;;;3.83;2.60;;;12.60;99.90;;;;;;4991541;28;20412;-69
2021/08/24 05:22:44;;;;;;;3.07;2.10;;;12.70;99.90;;;;;;4991272;28;20184;-69
2021/08/24 05:25:11;;;;;;;3.20;2.23;;;12.80;99.90;;;;;;4991958;28;20515;-69
2021/08/24 05:27:36;;;;;;;2.03;1.67;;;12.90;99.90;;;;;;4991316;28;20950;-69
2021/08/24 05:30:07;;;;;;;2.53;2.20;;;13.00;99.90;;;;;;4991427;28;20408;-68
2021/08/24 05:32:33;;;;;;;3.07;2.60;;;13.00;99.90;;;;;;4991538;28;20193;-69
2021/08/24 05:34:59;;;;;;;2.23;1.83;;;13.10;99.90;;;;;;4991358;28;20942;-69
2021/08/24 05:37:24;;;;;;;5.87;2.40;;;13.30;99.90;;;;;;4991172;28;20850;-69
2021/08/24 05:39:50;;;;;;;4.60;3.33;;;13.40;99.90;;;;;;4991636;28;20227;-68
2021/08/24 05:42:15;;;;;;;4.60;1.93;;;13.50;99.90;;;;;;4991259;28;20185;-68
2021/08/24 05:44:40;;;;;;;2.53;1.70;;;13.60;99.90;;;;;;4991408;28;20169;-68
2021/08/24 05:47:06;;;;;;;4.40;2.00;;;13.70;99.90;;;;;;4991262;28;20547;-71
2021/08/24 05:49:33;;;;;;;1.93;1.47;;;13.90;99.90;;;;;;4991506;28;20173;-69
2021/08/24 05:51:59;;;;;;;2.47;2.17;;;14.40;99.90;;;;;;4991451;28;20303;-70
2021/08/24 05:54:24;;;;;;;7.60;1.87;;;15.00;99.90;;;;;;4991766;28;20409;-70
2021/08/24 05:56:50;;;;;;;3.80;1.33;;;15.30;99.90;;;;;;4994467;28;20567;-70
2021/08/24 05:59:15;;;;;;;1.67;1.57;;;16.10;99.90;;;;;;4994744;28;20202;-68
2021/08/24 06:01:41;;;;;;;5.30;1.70;;;16.50;99.90;;;;;;4994707;28;20176;-68
2021/08/24 06:04:07;;;;;;;2.70;1.70;;;16.70;99.90;;;;;;4994618;28;20167;-69
2021/08/24 06:06:35;;;;;;;1.87;1.47;;;16.60;99.90;;;;;;4994474;28;20250;-68
2021/08/24 06:09:02;;;;;;;3.20;1.80;;;17.10;99.90;;;;;;4994617;28;20172;-68
2021/08/24 06:11:35;;;;;;;1.70;1.43;;;17.20;99.90;;;;;;4994405;28;20513;-68
2021/08/24 06:14:02;;;;;;;2.27;1.80;;;17.60;99.90;;;;;;4994260;28;20958;-69
2021/08/24 06:16:28;;;;;;;2.13;1.60;;;17.60;99.90;;;;;;4994449;28;20475;-69
2021/08/24 06:18:54;;;;;;;2.30;1.90;;;17.90;99.90;;;;;;4994390;28;20447;-69
2021/08/24 06:21:19;;;;;;;3.40;1.50;;;18.00;99.90;;;;;;4994186;28;20412;-69
2021/08/24 06:23:46;;;;;;;3.27;1.57;;;18.10;99.90;;;;;;4994529;28;20680;-70
2021/08/24 06:26:11;;;;;;;1.30;1.20;;;18.20;99.90;;;;;;4994508;28;20173;-70
2021/08/24 06:28:37;;;;;;;2.60;1.70;;;18.20;99.90;;;;;;4994396;28;20906;-69
2021/08/24 06:31:04;;;;;;;1.90;1.50;;;18.10;99.90;;;;;;4994114;28;20223;-69
2021/08/24 06:33:33;;;;;;;2.30;1.30;;;18.40;99.90;;;;;;4994199;28;20189;-69
2021/08/24 06:35:58;;;;;;;2.37;1.37;;;18.70;99.90;;;;;;4993918;28;20771;-69
2021/08/24 06:38:24;;;;;;;2.60;1.33;;;19.30;99.90;;;;;;4993959;28;20537;-69
2021/08/24 06:40:49;;;;;;;3.50;1.60;;;19.60;99.90;;;;;;4994058;28;20163;-69
2021/08/24 06:43:16;;;;;;;2.43;1.27;;;20.00;99.90;;;;;;4993707;28;20201;-70
2021/08/24 06:45:42;;;;;;;2.37;1.50;;;19.50;99.90;;;;;;4993847;28;20268;-70
2021/08/24 06:48:08;;;;;;;2.80;1.40;;;19.60;99.90;;;;;;4993711;28;20448;-70
2021/08/24 06:50:34;;;;;;;4.53;1.40;;;20.00;99.90;;;;;;4993810;28;20183;-70
2021/08/24 06:53:00;;;;;;;2.70;1.43;;;20.10;99.90;;;;;;4993596;28;20435;-70
2021/08/24 06:55:30;;;;;;;3.80;1.60;;;20.20;99.90;;;;;;4993868;28;20409;-70
2021/08/24 06:57:56;;;;;;;4.70;1.53;;;20.80;99.90;;;;;;4993658;28;20465;-70
2021/08/24 07:00:23;;;;;;;2.30;1.50;;;20.40;99.90;;;;;;4993781;28;20408;-70
2021/08/24 07:02:49;;;;;;;4.23;1.70;;;20.60;99.90;;;;;;4993302;28;20192;-70
2021/08/24 07:05:17;;;;;;;2.77;1.87;;;21.20;99.90;;;;;;4993619;28;20404;-70
2021/08/24 07:07:42;;;;;;;1.60;1.47;;;21.50;99.90;;;;;;4992519;28;20415;-70
2021/08/24 07:10:10;;;;;;;1.80;1.60;;;22.20;99.90;;;;;;4993508;28;20499;-70
2021/08/24 07:12:36;;;;;;;2.40;1.50;;;21.60;99.90;;;;;;4993165;28;20539;-71
2021/08/24 07:15:03;;;;;;;2.00;1.60;;;21.50;99.90;;;;;;4993386;28;20401;-68
2021/08/24 07:17:28;;;;;;;2.00;1.63;;;22.20;99.90;;;;;;5011484;28;20458;-69
2021/08/24 07:19:54;;;;;;;3.13;1.60;;;22.50;99.90;;;;;;5012801;28;20413;-69
2021/08/24 07:22:19;;;;;;;2.10;1.10;;;22.50;99.90;;;;;;5012501;28;20187;-69
2021/08/24 07:24:45;;;;;;;1.60;1.33;;;22.30;99.90;;;;;;5012694;28;20185;-69
2021/08/24 07:27:11;;;;;;;1.80;1.30;;;21.80;99.90;;;;;;5012485;28;20267;-68
2021/08/24 07:29:36;;;;;;;4.07;1.70;;;21.50;99.90;;;;;;5012596;28;20239;-69
2021/08/24 07:32:03;;;;;;;2.53;2.00;;;21.30;99.90;;;;;;5012310;28;20195;-69
2021/08/24 07:34:28;;;;;;;1.53;1.30;;;21.30;99.90;;;;;;5012643;28;20179;-70
2021/08/24 07:36:54;;;;;;;1.73;1.37;;;21.90;99.90;;;;;;5012240;28;20557;-69
2021/08/24 07:39:19;;;;;;;2.80;1.40;;;21.60;99.90;;;;;;5012502;28;20170;-69
2021/08/24 07:41:45;;;;;;;2.50;1.30;;;21.80;99.90;;;;;;5012818;28;20566;-70
2021/08/24 07:44:11;;;;;;;1.77;1.30;;;21.60;99.90;;;;;;5012963;28;20169;-70
2021/08/24 07:46:36;;;;;;;1.53;1.40;;;22.00;99.90;;;;;;4995054;28;20203;-70
2021/08/24 07:49:03;;;;;;;1.67;1.20;;;22.10;99.90;;;;;;5013011;28;20181;-70
2021/08/24 07:51:28;;;;;;;1.23;1.13;;;21.90;99.90;;;;;;5012693;28;20634;-70
2021/08/24 07:53:53;;;;;;;1.10;0.93;;;22.10;99.90;;;;;;5012672;28;20444;-70
2021/08/24 07:56:21;;;;;;;2.30;1.60;;;22.20;99.90;;;;;;5012591;28;20195;-70
2021/08/24 07:58:46;;;;;;;1.70;1.30;;;22.20;99.90;;;;;;5012560;28;20170;-71
2021/08/24 08:01:12;;;;;;;2.40;1.57;;;22.10;99.90;;;;;;5012607;28;20407;-70
2021/08/24 08:03:38;;;;;;;3.87;1.50;;;22.20;99.90;;;;;;5012652;28;20704;-71
2021/08/24 08:06:03;;;;;;;1.63;1.20;;;22.40;99.90;;;;;;5012571;28;20559;-71
2021/08/24 08:08:28;;;;;;;2.60;1.40;;;22.10;99.90;;;;;;5012502;28;20250;-71
2021/08/24 08:10:57;;;;;;;2.27;1.40;;;21.60;99.90;;;;;;5012623;28;20169;-70
2021/08/24 08:13:26;;;;;;;1.40;1.30;;;21.90;99.90;;;;;;5012047;28;20246;-70
2021/08/24 08:15:51;;;;;;;1.90;1.73;;;22.50;99.90;;;;;;5012074;28;20403;-70
2021/08/24 08:18:18;;;;;;;3.13;1.33;;;22.60;99.90;;;;;;5011980;28;20482;-70
2021/08/24 08:20:44;;;;;;;1.20;1.00;;;22.20;99.90;;;;;;5012129;28;20173;-70
2021/08/24 08:23:12;;;;;;;3.33;1.00;;;22.00;99.90;;;;;;5012103;28;20444;-70
2021/08/24 08:25:37;;;;;;;1.40;1.20;;;22.30;99.90;;;;;;5012014;28;20403;-70
2021/08/24 08:28:04;;;;;;;2.67;1.10;;;22.40;99.90;;;;;;5011955;28;20846;-70
2021/08/24 08:30:30;;;;;;;2.00;1.23;;;22.30;99.40;;;;;;5012174;28;20646;-70
2021/08/24 08:32:57;;;;;;;2.20;1.40;;;22.00;99.90;;;;;;5012059;28;20897;-70
2021/08/24 08:35:23;;;;;;;2.60;1.20;;;22.10;99.90;;;;;;5011908;28;20418;-70
2021/08/24 08:37:48;;;;;;;3.73;1.30;;;22.30;99.90;;;;;;5011641;28;20465;-70
2021/08/24 08:40:25;;;;;;;3.43;1.73;;;22.70;99.90;;;;;;5011851;28;20890;-70
2021/08/24 08:42:59;;;;;;;3.57;2.23;;;22.50;99.90;;;;;;5011596;28;20202;-70
2021/08/24 08:45:47;;;;;;;3.10;1.50;;;22.10;99.90;;;;;;5011745;28;20618;-70
2021/08/24 08:48:32;;;;;;;1.80;1.40;;;22.30;99.90;;;;;;5011725;28;20422;-70
2021/08/24 08:51:06;;;;;;;2.30;1.23;;;22.30;99.50;;;;;;5011671;28;20413;-70
2021/08/24 08:54:16;;;;;;;3.23;1.33;;;21.90;99.70;;;;;;5011595;28;20476;-70
2021/08/24 08:56:52;;;;;;;1.87;1.33;;;22.30;99.90;;;;;;4992134;28;20597;-71
2021/08/24 08:59:28;;;;;;;3.03;1.50;;;22.40;99.70;;;;;;5011596;28;20457;-71
2021/08/24 09:02:20;;;;;;;1.73;1.30;;;22.60;98.80;;;;;;5011395;28;20513;-71
2021/08/24 09:04:47;;;;;;;1.90;1.40;;;22.50;99.00;;;;;;5011636;28;20408;-70
2021/08/24 09:07:47;;;;;;;1.70;1.60;;;22.40;98.50;;;;;;5011621;28;20457;-70
2021/08/24 09:10:23;;;;;;;2.00;1.30;;;22.20;98.70;;;;;;5003715;28;20956;-70
2021/08/24 09:13:00;;;;;;;3.07;1.40;;;22.40;98.60;;;;;;5011212;28;20448;-70
2021/08/24 09:15:37;;;;;;;2.37;1.37;;;21.90;98.80;;;;;;5011403;28;20416;-70
2021/08/24 09:18:05;;;;;;;7.43;2.90;;;22.20;98.90;;;;;;5011423;28;20550;-70
2021/08/24 09:20:36;;;;;;;3.40;1.23;;;22.20;98.70;;;;;;5011446;28;20410;-71
2021/08/24 09:23:02;;;;;;;1.97;1.77;;;22.60;98.90;;;;;;5011631;28;20745;-71
2021/08/24 09:25:47;;;;;;;1.53;1.43;;;22.60;98.70;;;;;;5007195;28;20427;-71
2021/08/24 09:28:33;;;;;;;2.70;1.30;;;22.90;97.90;;;;;;4991719;28;20428;-71
2021/08/24 09:31:00;;;;;;;2.10;1.50;;;23.00;97.20;;;;;;5007864;28;20420;-71
2021/08/24 09:33:28;;;;;;;2.00;1.43;;;22.80;97.70;;;;;;5014898;28;20431;-71
2021/08/24 09:35:54;;;;;;;2.43;1.87;;;22.50;97.90;;;;;;5014901;28;20411;-69
2021/08/24 09:38:31;;;;;;;2.43;1.70;;;22.40;98.10;;;;;;5014571;28;20879;-69
2021/08/24 09:41:24;;;;;;;1.70;1.37;;;22.80;98.30;;;;;;5014649;28;20399;-70
2021/08/24 09:43:53;;;;;;;2.60;1.90;;;22.40;97.30;;;;;;5004084;28;20414;-69
2021/08/24 09:46:19;;;;;;;2.13;1.70;;;22.20;97.90;;;;;;5014844;28;20407;-70
2021/08/24 09:49:13;;;;;;;2.07;1.87;;;22.20;98.10;;;;;;5014657;28;20455;-69
2021/08/24 09:51:46;;;;;;;1.90;1.47;;;21.80;98.40;;;;;;5000364;28;20180;-70
2021/08/24 09:54:30;;;;;;;3.20;1.90;;;22.50;97.60;;;;;;5014914;28;20453;-70
2021/08/24 09:57:19;;;;;;;2.13;1.67;;;22.50;98.10;;;;;;5014277;28;20538;-70
2021/08/24 10:00:05;;;;;;;3.23;2.00;;;22.20;97.70;;;;;;5014548;28;20866;-69
2021/08/24 10:02:50;;;;;;;1.70;1.60;;;22.10;98.30;;;;;;4996804;28;20580;-69
2021/08/24 10:05:34;;;;;;;2.27;1.90;;;21.40;98.60;;;;;;5014720;28;20409;-69
2021/08/24 10:08:20;;;;;;;2.70;1.63;;;21.40;99.00;;;;;;5014115;28;20425;-69
2021/08/24 10:11:06;;;;;;;2.47;1.50;;;21.00;99.60;;;;;;5014224;28;20428;-71
2021/08/24 10:13:38;;;;;;;1.93;1.50;;;20.70;99.90;;;;;;5014039;28;20476;-69
2021/08/24 10:16:29;;;;;;;2.20;1.90;;;20.60;99.90;;;;;;5014193;28;20418;-69
2021/08/24 10:19:24;;;;;;;2.30;1.60;;;20.40;99.80;;;;;;5013704;28;20459;-69
2021/08/24 10:22:00;;;;;;;2.60;1.87;;;20.10;99.90;;;;;;5009231;28;20938;-72
2021/08/24 10:24:39;;;;;;;2.37;1.53;;;19.90;99.90;;;;;;5013856;28;20430;-71
2021/08/24 10:27:22;;;;;;;2.73;1.83;;;20.20;99.90;;;;;;5013732;28;20451;-70
2021/08/24 10:29:52;;;;;;;6.03;2.30;;;20.40;99.50;;;;;;5013892;28;20795;-71
2021/08/24 10:32:29;;;;;;;2.77;1.97;;;20.20;99.80;;;;;;5013720;28;20443;-70
2021/08/24 10:34:55;;;;;;;2.53;2.30;;;19.90;99.90;;;;;;5013790;28;20883;-70
2021/08/24 10:37:23;;;;;;;1.90;1.70;;;19.90;99.40;;;;;;5013544;28;20452;-69
2021/08/24 10:39:52;;;;;;;2.90;2.30;;;19.90;99.90;;;;;;5013578;28;20475;-73
2021/08/24 10:42:22;;;;;;;2.63;1.97;;;20.00;99.50;;;;;;5012528;28;20796;-70
2021/08/24 10:44:53;;;;;;;3.40;2.20;;;20.20;99.90;;;;;;5013435;28;20425;-72
2021/08/24 10:47:44;;;;;;;10.20;2.20;;;20.20;99.90;;;;;;5013419;28;20403;-73
2021/08/24 10:50:24;;;;;;;3.83;2.30;;;20.40;99.60;;;;;;5013453;28;20854;-69
2021/08/24 10:52:55;;;;;;;4.47;2.33;;;20.30;99.20;;;;;;5013219;28;20432;-69
2021/08/24 10:55:27;;;;;;;3.57;2.13;;;20.10;99.10;;;;;;5013358;28;20413;-69
2021/08/24 10:58:12;;;;;;;3.23;2.37;;;20.20;98.70;;;;;;5013261;28;20479;-70
2021/08/24 11:00:43;;;;;;;2.27;1.83;;;20.10;96.60;;;;;;4995703;28;20810;-69
2021/08/24 11:03:38;;;;;;;2.43;1.80;;;20.10;95.90;;;;;;5013262;28;20434;-70
2021/08/24 11:06:33;;;;;;;3.40;2.27;;;20.20;95.20;;;;;;5006577;28;20424;-67
2021/08/24 11:09:05;;;;;;;4.40;2.43;;;20.30;96.20;;;;;;5013006;28;20389;-68
2021/08/24 11:11:33;;;;;;;9.00;1.93;;;20.40;95.60;;;;;;5013217;28;20412;-67
2021/08/24 11:14:19;;;;;;;4.60;2.03;;;20.40;96.00;;;;;;5013014;28;20520;-68
2021/08/24 11:16:49;;;;;;;2.10;1.73;;;20.40;95.30;;;;;;5013098;28;20462;-67
2021/08/24 11:19:44;;;;;;;3.03;1.53;;;20.50;95.50;;;;;;4995317;28;20461;-70
2021/08/24 11:22:30;;;;;;;4.60;2.00;;;20.60;96.30;;;;;;5012609;28;20740;-69
2021/08/24 11:25:11;;;;;;;4.30;2.87;;;20.60;96.00;;;;;;5012906;28;20415;-69
2021/08/24 11:27:57;;;;;;;3.00;2.60;;;20.60;96.20;;;;;;5012579;28;20419;-69
2021/08/24 11:30:42;;;;;;;3.23;2.33;;;20.70;96.10;;;;;;5012884;28;20417;-69
2021/08/24 11:33:17;;;;;;;3.70;2.23;;;20.40;95.60;;;;;;5012516;28;20827;-69
2021/08/24 11:36:29;;;;;;;6.80;2.90;;;20.60;95.50;;;;;;5012776;28;20415;-69
2021/08/24 11:39:08;;;;;;;3.97;2.90;;;20.70;95.80;;;;;;5012359;28;20964;-69
2021/08/24 11:41:36;;;;;;;3.63;2.30;;;20.80;96.20;;;;;;5012403;28;20408;-69
2021/08/24 11:44:06;;;;;;;3.63;2.40;;;20.80;96.40;;;;;;5012753;28;20396;-69
2021/08/24 11:46:47;;;;;;;2.90;2.50;;;20.70;95.60;;;;;;5011687;28;20898;-69
2021/08/24 11:49:21;;;;;;;3.40;2.70;;;20.60;96.00;;;;;;5012508;28;20396;-67
2021/08/24 11:51:55;;;;;;;3.63;2.33;;;20.40;94.90;;;;;;5012358;28;20535;-67
2021/08/24 11:54:37;;;;;;;3.70;3.03;;;20.50;95.60;;;;;;5012127;28;20574;-67
2021/08/24 11:57:19;;;;;;;3.53;2.57;;;20.80;94.30;;;;;;5012254;28;20870;-68
2021/08/24 11:59:48;;;;;;;3.50;2.83;;;20.80;94.30;;;;;;5012492;28;20436;-68
2021/08/24 12:02:38;;;;;;;3.37;2.70;;;21.00;93.10;;;;;;5012550;28;20420;-70
2021/08/24 12:05:11;;;;;;;2.57;2.10;;;21.00;95.10;;;;;;5003227;28;20480;-68
2021/08/24 12:07:40;;;;;;;4.60;3.10;;;20.70;95.70;;;;;;5013089;28;20401;-70
2021/08/24 12:10:23;;;;;;;4.77;3.10;;;20.60;96.20;;;;;;5012477;28;20837;-68
2021/08/24 12:13:06;;;;;;;3.70;3.00;;;20.50;96.70;;;;;;5011785;28;20449;-70
2021/08/24 12:15:39;;;;;;;5.03;3.30;;;20.50;96.10;;;;;;5011845;28;20543;-68
2021/08/24 12:18:24;;;;;;;5.33;2.67;;;20.60;95.60;;;;;;5011273;28;20456;-69
2021/08/24 12:20:58;;;;;;;3.73;3.23;;;20.50;96.10;;;;;;5011790;28;20409;-69
2021/08/24 12:23:39;;;;;;;2.97;2.53;;;20.60;95.30;;;;;;5011800;28;20422;-68
2021/08/24 12:26:32;;;;;;;4.67;3.30;;;20.60;94.90;;;;;;5011852;28;20412;-70
2021/08/24 12:29:27;;;;;;;3.03;2.60;;;20.90;94.80;;;;;;5012052;28;20398;-67
2021/08/24 12:31:56;;;;;;;3.47;2.80;;;20.90;94.20;;;;;;4993906;28;20443;-68
2021/08/24 12:34:45;;;;;;;3.80;3.00;;;20.70;94.90;;;;;;5011925;28;20410;-68
2021/08/24 12:37:19;;;;;;;6.57;2.67;;;20.50;95.90;;;;;;5011458;28;20459;-67
2021/08/24 12:39:50;;;;;;;5.43;3.70;;;20.50;96.90;;;;;;5011798;28;20438;-68
2021/08/24 12:42:25;;;;;;;4.10;3.10;;;20.40;96.00;;;;;;5011676;28;20435;-67
2021/08/24 12:44:56;;;;;;;3.60;3.30;;;20.40;95.80;;;;;;5011626;28;20390;-69
2021/08/24 12:47:24;;;;;;;7.60;3.67;;;20.50;95.60;;;;;;5011485;28;20414;-69
2021/08/24 12:49:50;;;;;;;3.53;2.80;;;20.60;95.60;;;;;;5011675;28;20494;-69
2021/08/24 12:52:19;;;;;;;4.00;3.50;;;20.80;95.50;;;;;;5011506;28;20528;-71
2021/08/24 12:55:06;;;;;;;6.50;3.57;;;20.90;94.10;;;;;;5011637;28;20542;-69
2021/08/24 12:57:36;;;;;;;4.30;3.10;;;20.90;93.40;;;;;;5011434;28;20540;-68
2021/08/24 13:00:11;;;;;;;5.37;2.97;;;20.90;92.90;;;;;;5011462;28;20888;-68
2021/08/24 13:02:38;;;;;;;3.60;2.80;;;21.10;93.10;;;;;;5011345;28;20424;-69
2021/08/24 13:05:12;;;;;;;4.87;3.50;;;21.20;92.90;;;;;;5012471;28;20495;-68
2021/08/24 13:08:04;;;;;;;3.87;3.20;;;21.00;92.70;;;;;;5015217;28;20478;-67
2021/08/24 13:10:34;;;;;;;4.33;2.80;;;21.10;92.50;;;;;;5015433;28;20498;-68
2021/08/24 13:13:02;;;;;;;6.60;3.90;;;21.20;92.80;;;;;;5014913;28;20819;-68
2021/08/24 13:15:28;;;;;;;4.83;3.33;;;21.30;93.20;;;;;;5015272;28;20438;-68